createdAt,value
2019-05-14T00:02:02.847Z,6.10
2019-05-14T00:04:32.580Z,6.20
2019-05-14T00:07:03.320Z,6.20
2019-05-14T00:09:33.818Z,6.20
2019-05-14T00:12:04.490Z,6.20
2019-05-14T00:14:39.594Z,6.20
2019-05-14T00:17:07.177Z,6.20
2019-05-14T00:19:38.139Z,6.20
2019-05-14T00:22:08.657Z,6.20
2019-05-14T00:24:41.663Z,6.20
2019-05-14T00:27:12.108Z,6.20
2019-05-14T00:29:44.032Z,6.20
2019-05-14T00:32:14.666Z,6.20
2019-05-14T00:34:45.282Z,6.20
2019-05-14T00:37:15.683Z,6.20
2019-05-14T00:39:46.236Z,6.20
2019-05-14T00:42:16.701Z,6.20
2019-05-14T00:44:54.318Z,6.20
2019-05-14T00:47:21.529Z,6.20
2019-05-14T00:49:51.936Z,6.20
2019-05-14T00:52:22.674Z,6.20
2019-05-14T00:54:53.218Z,6.20
2019-05-14T00:57:23.757Z,6.20
2019-05-14T00:59:54.351Z,6.20
2019-05-14T01:02:24.797Z,6.20
2019-05-14T01:04:55.427Z,6.20
2019-05-14T01:07:26.115Z,6.10
2019-05-14T01:09:56.686Z,6.10
2019-05-14T01:12:27.507Z,6.10
2019-05-14T01:15:09.548Z,6.10
2019-05-14T01:17:31.466Z,6.10
2019-05-14T01:20:03.150Z,6.00
2019-05-14T01:22:36.633Z,6.00
2019-05-14T01:25:07.273Z,6.00
2019-05-14T01:27:37.839Z,6.00
2019-05-14T01:30:08.733Z,5.90
2019-05-14T01:32:41.845Z,5.90
2019-05-14T01:35:12.210Z,5.90
2019-05-14T01:37:42.951Z,5.90
2019-05-14T01:40:13.687Z,5.90
2019-05-14T01:42:44.142Z,5.90
2019-05-14T01:45:26.955Z,5.90
2019-05-14T01:47:48.002Z,5.90
2019-05-14T01:50:18.638Z,5.80
2019-05-14T01:52:49.053Z,5.80
2019-05-14T01:55:21.778Z,5.90
2019-05-14T01:57:51.940Z,5.80
2019-05-14T02:00:23.030Z,5.80
2019-05-14T02:02:53.604Z,5.80
2019-05-14T02:05:25.700Z,5.80
2019-05-14T02:07:57.315Z,5.70
2019-05-14T02:10:27.967Z,5.70
2019-05-14T02:12:58.593Z,5.70
2019-05-14T02:15:37.178Z,5.70
2019-05-14T02:18:02.344Z,5.70
2019-05-14T02:20:33.252Z,5.70
2019-05-14T02:23:03.936Z,5.70
2019-05-14T02:25:34.473Z,5.70
2019-05-14T02:28:04.959Z,5.70
2019-05-14T02:30:48.110Z,5.70
2019-05-14T02:33:09.231Z,5.70
2019-05-14T02:35:40.064Z,5.70
2019-05-14T02:38:10.581Z,5.70
2019-05-14T02:40:40.963Z,5.70
2019-05-14T02:43:11.596Z,5.70
2019-05-14T02:46:00.466Z,5.70
2019-05-14T02:48:14.788Z,5.70
2019-05-14T02:50:45.489Z,5.70
2019-05-14T02:53:19.505Z,5.70
2019-05-14T02:55:49.740Z,5.70
2019-05-14T02:58:21.190Z,5.70
2019-05-14T03:00:51.950Z,5.80
2019-05-14T03:03:22.598Z,5.80
2019-05-14T03:06:04.947Z,5.80
2019-05-14T03:08:38.839Z,5.80
2019-05-14T03:11:09.427Z,5.80
2019-05-14T03:13:40.381Z,5.80
2019-05-14T03:16:25.967Z,5.90
2019-05-14T03:18:44.614Z,5.90
2019-05-14T03:21:15.164Z,5.90
2019-05-14T03:23:45.664Z,5.90
2019-05-14T03:26:19.591Z,6.00
2019-05-14T03:28:49.584Z,6.00
2019-05-14T03:31:22.519Z,6.00
2019-05-14T03:33:53.479Z,6.10
2019-05-14T03:36:27.111Z,6.10
2019-05-14T03:38:59.192Z,6.10
2019-05-14T03:41:30.590Z,6.20
2019-05-14T03:44:01.035Z,6.20
2019-05-14T03:46:45.827Z,6.30
2019-05-14T03:49:03.904Z,6.30
2019-05-14T03:51:34.641Z,6.30
2019-05-14T03:54:07.881Z,6.40
2019-05-14T03:56:39.497Z,6.40
2019-05-14T03:59:10.557Z,6.50
2019-05-14T04:01:41.252Z,6.50
2019-05-14T04:04:12.379Z,6.60
2019-05-14T04:06:44.063Z,6.60
2019-05-14T04:09:15.747Z,6.60
2019-05-14T04:11:50.122Z,6.60
2019-05-14T04:14:23.818Z,6.60
2019-05-14T04:17:05.248Z,6.60
2019-05-14T04:19:29.852Z,6.60
2019-05-14T04:22:05.460Z,6.60
2019-05-14T04:24:41.538Z,6.60
2019-05-14T04:27:14.632Z,6.50
2019-05-14T04:29:49.596Z,6.50
2019-05-14T04:32:21.092Z,6.60
2019-05-14T04:34:51.791Z,6.60
2019-05-14T04:37:22.806Z,6.60
2019-05-14T04:39:53.501Z,6.60
2019-05-14T04:42:24.349Z,6.70
2019-05-14T04:44:55.069Z,6.70
2019-05-14T04:47:32.001Z,6.70
2019-05-14T04:49:59.140Z,6.70
2019-05-14T04:52:30.255Z,6.70
2019-05-14T04:55:00.980Z,6.80
2019-05-14T04:57:31.823Z,6.90
2019-05-14T05:00:02.510Z,7.00
2019-05-14T05:02:33.077Z,7.10
2019-05-14T05:05:03.930Z,7.20
2019-05-14T05:07:34.598Z,7.20
2019-05-14T05:10:05.671Z,7.20
2019-05-14T05:12:38.733Z,7.20
2019-05-14T05:15:10.918Z,7.30
2019-05-14T05:17:47.987Z,7.30
2019-05-14T05:20:14.206Z,7.30
2019-05-14T05:22:45.443Z,7.30
2019-05-14T05:25:16.148Z,7.30
2019-05-14T05:27:48.726Z,7.40
2019-05-14T05:30:20.439Z,7.40
2019-05-14T05:32:51.719Z,7.50
2019-05-14T05:35:22.444Z,7.60
2019-05-14T05:37:53.073Z,7.60
2019-05-14T05:40:23.609Z,7.70
2019-05-14T05:42:54.160Z,7.80
2019-05-14T05:45:24.740Z,7.80
2019-05-14T05:47:59.030Z,7.80
2019-05-14T05:50:28.750Z,7.80
2019-05-14T05:52:59.510Z,7.80
2019-05-14T05:55:30.108Z,7.70
2019-05-14T05:58:00.773Z,7.80
2019-05-14T06:00:39.539Z,7.80
2019-05-14T06:03:10.897Z,7.80
2019-05-14T06:05:41.460Z,7.80
2019-05-14T06:08:12.227Z,7.90
2019-05-14T06:10:42.959Z,7.90
2019-05-14T06:13:14.185Z,8.00
2019-05-14T06:15:48.715Z,8.00
2019-05-14T06:18:19.444Z,8.00
2019-05-14T06:20:49.603Z,8.10
2019-05-14T06:23:20.348Z,8.20
2019-05-14T06:25:50.991Z,8.20
2019-05-14T06:28:21.673Z,8.20
2019-05-14T06:30:52.307Z,8.40
2019-05-14T06:33:22.929Z,8.50
2019-05-14T06:35:53.489Z,8.50
2019-05-14T06:38:24.082Z,8.50
2019-05-14T06:40:54.879Z,8.40
2019-05-14T06:43:25.476Z,8.30
2019-05-14T06:45:58.544Z,8.20
2019-05-14T06:48:34.501Z,8.30
2019-05-14T06:51:02.007Z,8.30
2019-05-14T06:53:33.042Z,8.40
2019-05-14T06:56:03.771Z,8.40
2019-05-14T06:58:34.333Z,8.40
2019-05-14T07:01:04.887Z,8.40
2019-05-14T07:03:35.509Z,8.40
2019-05-14T07:06:06.161Z,8.60
2019-05-14T07:08:39.287Z,8.50
2019-05-14T07:11:09.358Z,8.70
2019-05-14T07:13:39.922Z,8.80
2019-05-14T07:16:10.580Z,9.00
2019-05-14T07:18:49.311Z,9.20
2019-05-14T07:21:13.655Z,9.30
2019-05-14T07:23:44.547Z,9.40
2019-05-14T07:26:14.961Z,9.50
2019-05-14T07:28:45.641Z,9.60
2019-05-14T07:31:18.506Z,9.60
2019-05-14T07:33:49.453Z,9.70
2019-05-14T07:36:20.271Z,10.00
2019-05-14T07:38:50.925Z,10.30
2019-05-14T07:41:21.567Z,10.30
2019-05-14T07:43:52.280Z,10.10
2019-05-14T07:46:22.945Z,10.00
2019-05-14T07:49:04.328Z,9.90
2019-05-14T07:51:28.073Z,9.70
2019-05-14T07:53:58.199Z,9.50
2019-05-14T07:56:29.431Z,9.30
2019-05-14T07:59:02.367Z,9.20
2019-05-14T08:01:32.715Z,9.20
2019-05-14T08:04:03.410Z,9.20
2019-05-14T08:06:34.091Z,9.00
2019-05-14T08:09:08.714Z,8.70
2019-05-14T08:11:39.428Z,8.60
2019-05-14T08:14:10.063Z,8.60
2019-05-14T08:16:40.759Z,8.70
2019-05-14T08:19:24.140Z,8.70
2019-05-14T08:21:43.872Z,8.70
2019-05-14T08:24:15.295Z,8.90
2019-05-14T08:26:48.565Z,9.00
2019-05-14T08:29:18.981Z,9.10
2019-05-14T08:31:49.779Z,9.30
2019-05-14T08:34:20.298Z,9.40
2019-05-14T08:36:51.136Z,9.60
2019-05-14T08:39:21.869Z,9.60
2019-05-14T08:41:59.458Z,10.10
2019-05-14T08:44:24.888Z,10.50
2019-05-14T08:46:55.574Z,10.50
2019-05-14T08:49:38.906Z,10.20
2019-05-14T08:51:59.561Z,10.00
2019-05-14T08:54:30.378Z,9.70
2019-05-14T08:57:00.994Z,9.50
2019-05-14T08:59:32.666Z,8.90
2019-05-14T09:02:06.644Z,8.60
2019-05-14T09:04:41.887Z,8.40
2019-05-14T09:07:09.552Z,8.20
2019-05-14T09:09:40.492Z,8.10
2019-05-14T09:12:13.984Z,8.00
2019-05-14T09:14:44.618Z,8.00
2019-05-14T09:17:18.326Z,8.00
2019-05-14T09:20:00.939Z,8.00
2019-05-14T09:22:20.389Z,8.00
2019-05-14T09:24:51.135Z,8.00
2019-05-14T09:27:22.258Z,8.10
2019-05-14T09:29:52.726Z,8.10
2019-05-14T09:32:24.374Z,8.30
2019-05-14T09:34:55.208Z,8.60
2019-05-14T09:37:28.720Z,8.70
2019-05-14T09:39:58.568Z,8.90
2019-05-14T09:42:29.240Z,9.00
2019-05-14T09:44:59.982Z,9.00
2019-05-14T09:47:30.837Z,8.70
2019-05-14T09:50:14.125Z,8.60
2019-05-14T09:52:33.939Z,8.50
2019-05-14T09:55:04.746Z,8.40
2019-05-14T09:57:35.693Z,8.30
2019-05-14T10:00:09.151Z,8.40
2019-05-14T10:02:41.280Z,8.40
2019-05-14T10:05:12.338Z,8.20
2019-05-14T10:07:43.058Z,8.30
2019-05-14T10:10:13.643Z,8.50
2019-05-14T10:12:52.919Z,8.70
2019-05-14T10:15:16.645Z,8.60
2019-05-14T10:17:50.056Z,8.50
2019-05-14T10:20:36.638Z,8.50
2019-05-14T10:22:54.391Z,8.50
2019-05-14T10:25:26.050Z,8.70
2019-05-14T10:27:59.078Z,8.80
2019-05-14T10:30:29.998Z,9.30
2019-05-14T10:33:09.019Z,9.70
2019-05-14T10:35:33.463Z,10.00
2019-05-14T10:38:04.203Z,9.70
2019-05-14T10:40:34.844Z,9.80
2019-05-14T10:43:05.622Z,9.50
2019-05-14T10:45:38.478Z,9.30
2019-05-14T10:48:09.885Z,9.10
2019-05-14T10:50:56.273Z,8.80
2019-05-14T10:53:13.940Z,8.70
2019-05-14T10:55:44.609Z,8.80
2019-05-14T10:58:15.238Z,8.70
2019-05-14T11:00:45.850Z,8.50
2019-05-14T11:03:18.640Z,8.30
2019-05-14T11:05:48.933Z,8.30
2019-05-14T11:08:19.739Z,8.30
2019-05-14T11:10:51.619Z,8.20
2019-05-14T11:13:22.249Z,8.30
2019-05-14T11:15:52.851Z,8.30
2019-05-14T11:18:23.620Z,8.30
2019-05-14T11:20:54.162Z,8.30
2019-05-14T11:23:24.793Z,8.30
2019-05-14T11:25:55.466Z,8.30
2019-05-14T11:28:28.327Z,8.30
2019-05-14T11:30:58.340Z,8.30
2019-05-14T11:33:29.993Z,8.40
2019-05-14T11:36:01.655Z,8.40
2019-05-14T11:38:37.224Z,8.30
2019-05-14T11:41:04.643Z,8.20
2019-05-14T11:43:35.364Z,8.10
2019-05-14T11:46:08.421Z,8.00
2019-05-14T11:48:39.827Z,7.90
2019-05-14T11:51:10.467Z,7.90
2019-05-14T11:53:41.108Z,7.80
2019-05-14T11:56:11.730Z,7.80
2019-05-14T11:58:43.461Z,7.90
2019-05-14T12:01:14.222Z,8.00
2019-05-14T12:03:44.704Z,8.10
2019-05-14T12:06:15.497Z,8.10
2019-05-14T12:08:46.363Z,8.00
2019-05-14T12:11:19.375Z,8.20
2019-05-14T12:13:49.371Z,8.60
2019-05-14T12:16:19.995Z,8.80
2019-05-14T12:18:50.685Z,8.80
2019-05-14T12:21:21.310Z,8.80
2019-05-14T12:23:51.955Z,8.70
2019-05-14T12:26:22.551Z,8.60
2019-05-14T12:28:56.097Z,8.50
2019-05-14T12:31:25.615Z,8.40
2019-05-14T12:33:58.368Z,8.30
2019-05-14T12:36:29.409Z,8.30
2019-05-14T12:39:01.233Z,8.40
2019-05-14T12:41:32.828Z,8.40
2019-05-14T12:44:03.810Z,8.50
2019-05-14T12:46:34.572Z,8.40
2019-05-14T12:49:05.504Z,8.40
2019-05-14T12:51:39.311Z,8.30
2019-05-14T12:54:09.351Z,8.30
2019-05-14T12:56:40.143Z,8.30
2019-05-14T12:59:11.536Z,8.20
2019-05-14T13:01:42.015Z,8.20
2019-05-14T13:04:12.695Z,8.20
2019-05-14T13:06:43.442Z,8.20
2019-05-14T13:09:21.011Z,8.20
2019-05-14T13:11:49.769Z,8.30
2019-05-14T13:14:20.556Z,8.30
2019-05-14T13:16:54.444Z,8.40
2019-05-14T13:19:23.491Z,8.40
2019-05-14T13:22:10.021Z,8.30
2019-05-14T13:24:28.780Z,8.20
2019-05-14T13:26:59.026Z,8.20
2019-05-14T13:29:29.871Z,8.10
2019-05-14T13:32:00.592Z,8.10
2019-05-14T13:34:31.433Z,8.10
2019-05-14T13:37:02.071Z,8.10
2019-05-14T13:39:33.007Z,8.10
2019-05-14T13:42:03.848Z,8.00
2019-05-14T13:44:34.603Z,7.90
2019-05-14T13:47:05.704Z,7.80
2019-05-14T13:49:39.085Z,7.80
2019-05-14T13:52:09.490Z,7.80
2019-05-14T13:54:40.319Z,7.80
2019-05-14T13:57:12.199Z,7.70
2019-05-14T13:59:44.800Z,7.60
2019-05-14T14:02:15.593Z,7.50
2019-05-14T14:04:48.282Z,7.50
2019-05-14T14:07:20.044Z,7.60
2019-05-14T14:09:50.943Z,7.50
2019-05-14T14:12:25.035Z,7.60
2019-05-14T14:14:53.836Z,7.50
2019-05-14T14:17:24.373Z,7.60
2019-05-14T14:19:55.219Z,7.60
2019-05-14T14:22:25.770Z,7.60
2019-05-14T14:24:59.096Z,7.60
2019-05-14T14:27:29.931Z,7.60
2019-05-14T14:30:01.121Z,7.50
2019-05-14T14:32:32.171Z,7.60
2019-05-14T14:35:02.929Z,7.70
2019-05-14T14:37:33.506Z,7.60
2019-05-14T14:40:04.547Z,7.70
2019-05-14T14:42:36.005Z,7.70
2019-05-14T14:45:08.638Z,7.60
2019-05-14T14:47:40.029Z,7.60
2019-05-14T14:50:12.361Z,7.50
2019-05-14T14:52:43.007Z,7.50
2019-05-14T14:55:14.903Z,7.50
2019-05-14T14:57:46.311Z,7.50
2019-05-14T15:00:19.571Z,7.50
2019-05-14T15:02:50.328Z,7.60
2019-05-14T15:05:21.124Z,7.60
2019-05-14T15:07:51.713Z,7.60
2019-05-14T15:10:22.329Z,7.60
2019-05-14T15:12:52.895Z,7.70
2019-05-14T15:15:23.477Z,7.70
2019-05-14T15:17:53.963Z,7.70
2019-05-14T15:20:24.808Z,7.80
2019-05-14T15:22:55.483Z,7.70
2019-05-14T15:25:26.263Z,7.80
2019-05-14T15:27:58.394Z,7.80
2019-05-14T15:30:29.150Z,7.80
2019-05-14T15:32:59.945Z,7.70
2019-05-14T15:35:30.654Z,7.70
2019-05-14T15:38:01.272Z,7.60
2019-05-14T15:40:32.075Z,7.60
2019-05-14T15:43:02.984Z,7.60
2019-05-14T15:45:34.024Z,7.50
2019-05-14T15:48:04.513Z,7.50
2019-05-14T15:50:38.604Z,7.50
2019-05-14T15:53:10.818Z,7.50
2019-05-14T15:55:40.181Z,7.50
2019-05-14T15:58:10.715Z,7.50
2019-05-14T16:00:41.801Z,7.50
2019-05-14T16:03:12.721Z,7.50
2019-05-14T16:05:43.401Z,7.50
2019-05-14T16:08:14.089Z,7.50
2019-05-14T16:10:44.968Z,7.50
2019-05-14T16:13:15.841Z,7.50
2019-05-14T16:15:48.400Z,7.50
2019-05-14T16:18:22.042Z,7.50
2019-05-14T16:20:51.326Z,7.50
2019-05-14T16:23:22.283Z,7.50
2019-05-14T16:25:52.948Z,7.50
2019-05-14T16:28:25.045Z,7.50
2019-05-14T16:30:55.891Z,7.50
2019-05-14T16:33:29.008Z,7.50
2019-05-14T16:35:58.828Z,7.50
2019-05-14T16:38:29.364Z,7.50
2019-05-14T16:41:00.131Z,7.50
2019-05-14T16:43:32.400Z,7.50
2019-05-14T16:46:03.567Z,7.50
2019-05-14T16:48:34.198Z,7.50
2019-05-14T16:51:05.152Z,7.50
2019-05-14T16:53:37.865Z,7.50
2019-05-14T16:56:08.449Z,7.50
2019-05-14T16:58:39.153Z,7.50
2019-05-14T17:01:10.105Z,7.50
2019-05-14T17:03:42.199Z,7.50
2019-05-14T17:06:13.013Z,7.50
2019-05-14T17:08:43.948Z,7.50
2019-05-14T17:11:14.692Z,7.50
2019-05-14T17:13:45.197Z,7.50
2019-05-14T17:16:15.809Z,7.50
2019-05-14T17:18:48.634Z,7.50
2019-05-14T17:21:20.336Z,7.50
2019-05-14T17:23:51.120Z,7.50
2019-05-14T17:26:21.753Z,7.50
2019-05-14T17:28:52.569Z,7.50
2019-05-14T17:31:23.222Z,7.60
2019-05-14T17:33:54.274Z,7.60
2019-05-14T17:36:25.091Z,7.60
2019-05-14T17:38:55.805Z,7.60
2019-05-14T17:41:26.460Z,7.60
2019-05-14T17:43:58.622Z,7.60
2019-05-14T17:46:29.370Z,7.60
2019-05-14T17:49:00.480Z,7.60
2019-05-14T17:51:31.598Z,7.60
2019-05-14T17:54:02.786Z,7.60
2019-05-14T17:56:33.631Z,7.60
2019-05-14T17:59:04.505Z,7.60
2019-05-14T18:01:35.799Z,7.60
2019-05-14T18:04:08.908Z,7.60
2019-05-14T18:06:38.661Z,7.60
2019-05-14T18:09:09.566Z,7.60
2019-05-14T18:11:41.000Z,7.60
2019-05-14T18:14:12.122Z,7.60
2019-05-14T18:16:42.965Z,7.60
2019-05-14T18:19:14.088Z,7.60
2019-05-14T18:21:48.420Z,7.60
2019-05-14T18:24:18.935Z,7.60
2019-05-14T18:26:51.449Z,7.60
2019-05-14T18:29:22.326Z,7.60
2019-05-14T18:31:54.594Z,7.60
2019-05-14T18:34:25.281Z,7.60
2019-05-14T18:36:55.878Z,7.50
2019-05-14T18:39:28.338Z,7.50
2019-05-14T18:42:00.559Z,7.50
2019-05-14T18:44:32.021Z,7.50
2019-05-14T18:47:05.538Z,7.50
2019-05-14T18:49:36.550Z,7.50
2019-05-14T18:52:08.868Z,7.40
2019-05-14T18:54:40.270Z,7.50
2019-05-14T18:57:12.255Z,7.50
2019-05-14T18:59:43.277Z,7.40
2019-05-14T19:02:14.216Z,7.40
2019-05-14T19:04:45.158Z,7.40
2019-05-14T19:07:18.686Z,7.40
2019-05-14T19:09:50.173Z,7.40
2019-05-14T19:12:21.250Z,7.40
2019-05-14T19:14:52.126Z,7.40
2019-05-14T19:17:23.329Z,7.40
2019-05-14T19:19:55.802Z,7.50
2019-05-14T19:22:28.594Z,7.50
2019-05-14T19:24:58.881Z,7.50
2019-05-14T19:27:29.710Z,7.50
2019-05-14T19:30:03.180Z,7.50
2019-05-14T19:32:33.762Z,7.50
2019-05-14T19:35:05.485Z,7.50
2019-05-14T19:37:38.787Z,7.50
2019-05-14T19:40:10.903Z,7.50
2019-05-14T19:42:42.033Z,7.50
2019-05-14T19:45:13.997Z,7.50
2019-05-14T19:47:44.804Z,7.60
2019-05-14T19:50:15.898Z,7.50
2019-05-14T19:52:48.828Z,7.50
2019-05-14T19:55:20.308Z,7.50
2019-05-14T19:57:53.736Z,7.50
2019-05-14T20:00:28.854Z,7.60
2019-05-14T20:02:59.168Z,7.60
2019-05-14T20:05:31.450Z,7.60
2019-05-14T20:08:04.206Z,7.60
2019-05-14T20:10:35.282Z,7.60
2019-05-14T20:13:05.827Z,7.60
2019-05-14T20:15:38.892Z,7.60
2019-05-14T20:18:09.562Z,7.70
2019-05-14T20:20:40.271Z,7.70
2019-05-14T20:23:12.296Z,7.60
2019-05-14T20:25:42.903Z,7.60
2019-05-14T20:28:13.561Z,7.60
2019-05-14T20:30:44.501Z,7.60
2019-05-14T20:33:15.462Z,7.60
2019-05-14T20:35:47.926Z,7.60
2019-05-14T20:38:18.682Z,7.70
2019-05-14T20:40:49.391Z,7.70
2019-05-14T20:43:20.015Z,7.70
2019-05-14T20:45:50.539Z,7.70
2019-05-14T20:48:21.274Z,7.70
2019-05-14T20:50:52.009Z,7.70
2019-05-14T20:55:52.792Z,7.70
2019-05-14T20:58:23.294Z,7.70
2019-05-14T21:00:53.710Z,7.70
2019-05-14T21:03:25.880Z,7.70
2019-05-14T21:05:58.212Z,7.70
2019-05-14T21:08:28.725Z,7.70
2019-05-14T21:10:59.312Z,7.70
2019-05-14T21:13:29.920Z,7.70
2019-05-14T21:16:00.435Z,7.70
2019-05-14T21:18:35.231Z,7.80
2019-05-14T21:21:03.101Z,7.80
2019-05-14T21:23:33.608Z,7.80
2019-05-14T21:26:04.121Z,7.80
2019-05-14T21:28:34.780Z,7.80
2019-05-14T21:31:05.272Z,7.80
2019-05-14T21:33:35.759Z,7.80
2019-05-14T21:36:06.529Z,7.80
2019-05-14T21:38:37.901Z,7.80
2019-05-14T21:41:09.149Z,7.80
2019-05-14T21:43:39.684Z,7.80
2019-05-14T21:46:10.201Z,7.80
2019-05-14T21:48:40.660Z,7.80
2019-05-14T21:51:11.248Z,7.80
2019-05-14T21:53:41.796Z,7.80
2019-05-14T21:56:12.697Z,7.80
2019-05-14T21:58:43.109Z,7.80
2019-05-14T22:01:33.536Z,7.80
2019-05-14T22:04:04.463Z,7.80
2019-05-14T22:06:35.010Z,7.80
2019-05-14T22:09:08.741Z,7.80
2019-05-14T22:11:39.548Z,7.80
2019-05-14T22:14:10.386Z,7.80
2019-05-14T22:16:40.933Z,7.90
2019-05-14T22:19:11.649Z,7.90
2019-05-14T22:21:42.286Z,7.90
2019-05-14T22:24:12.876Z,7.90
2019-05-14T22:26:43.510Z,7.90
2019-05-14T22:29:14.017Z,7.80
2019-05-14T22:31:44.608Z,7.90
2019-05-14T22:34:15.088Z,7.90
2019-05-14T22:36:45.556Z,7.90
2019-05-14T22:39:19.797Z,7.90
2019-05-14T22:41:48.176Z,7.90
2019-05-14T22:44:18.736Z,7.90
2019-05-14T22:46:49.314Z,7.90
2019-05-14T22:49:19.916Z,7.90
2019-05-14T22:51:50.473Z,7.90
2019-05-14T22:54:21.106Z,8.00
2019-05-14T22:56:51.633Z,8.00
2019-05-14T22:59:22.102Z,8.00
2019-05-14T23:01:52.578Z,8.00
2019-05-14T23:04:23.076Z,7.90
2019-05-14T23:06:54.067Z,8.00
2019-05-14T23:09:24.554Z,8.00
2019-05-14T23:11:55.084Z,7.90
2019-05-14T23:14:28.077Z,8.00
2019-05-14T23:16:57.895Z,8.00
2019-05-14T23:19:28.558Z,8.00
2019-05-14T23:21:59.199Z,8.00
2019-05-14T23:24:29.810Z,8.00
2019-05-14T23:27:00.347Z,8.00
2019-05-14T23:29:30.876Z,8.00
2019-05-14T23:32:01.376Z,8.00
2019-05-14T23:34:31.819Z,8.00
2019-05-14T23:37:02.566Z,8.00
2019-05-14T23:39:33.061Z,8.00
2019-05-14T23:42:04.228Z,8.00
2019-05-14T23:44:34.652Z,8.10
2019-05-14T23:47:05.122Z,8.00
2019-05-14T23:49:35.566Z,8.00
2019-05-14T23:52:06.025Z,8.10
2019-05-14T23:54:38.105Z,8.10
2019-05-14T23:57:08.963Z,8.10
2019-05-14T23:59:39.782Z,8.10
